createdAt,value
2018-11-23T00:00:32.621Z,27.37
2018-11-23T00:03:01.752Z,27.73
2018-11-23T00:05:30.528Z,31.02
2018-11-23T00:07:59.922Z,28.42
2018-11-23T00:10:30.032Z,27.65
2018-11-23T00:13:01.057Z,28.92
2018-11-23T00:15:29.852Z,28.12
2018-11-23T00:17:58.620Z,28.67
2018-11-23T00:20:28.491Z,30.27
2018-11-23T00:22:57.323Z,28.17
2018-11-23T00:25:26.875Z,30.88
2018-11-23T00:27:56.141Z,29.35
2018-11-23T00:30:26.157Z,27.95
2018-11-23T00:32:55.166Z,25.35
2018-11-23T00:35:25.172Z,29.12
2018-11-23T00:37:54.496Z,27.60
2018-11-23T00:40:24.507Z,24.82
2018-11-23T00:42:54.089Z,26.97
2018-11-23T00:45:22.983Z,27.67
2018-11-23T00:47:52.425Z,26.95
2018-11-23T00:50:22.426Z,28.07
2018-11-23T00:52:51.887Z,28.65
2018-11-23T00:55:21.699Z,28.17
2018-11-23T00:57:50.509Z,26.07
2018-11-23T01:00:24.036Z,30.37
2018-11-23T01:02:53.481Z,27.65
2018-11-23T01:05:22.235Z,29.12
2018-11-23T01:07:51.071Z,30.23
2018-11-23T01:10:21.196Z,31.73
2018-11-23T01:12:50.981Z,31.50
2018-11-23T01:15:19.801Z,30.00
2018-11-23T01:17:48.573Z,28.75
2018-11-23T01:20:22.134Z,28.70
2018-11-23T01:22:51.320Z,31.35
2018-11-23T01:25:21.280Z,32.42
2018-11-23T01:27:51.142Z,31.95
2018-11-23T01:30:21.917Z,31.27
2018-11-23T01:32:50.836Z,32.08
2018-11-23T01:35:19.647Z,28.50
2018-11-23T01:37:48.367Z,32.33
2018-11-23T01:40:18.414Z,30.43
2018-11-23T01:42:47.516Z,32.08
2018-11-23T01:45:16.470Z,32.08
2018-11-23T01:47:45.411Z,31.02
2018-11-23T01:50:16.349Z,29.30
2018-11-23T01:52:46.382Z,31.50
2018-11-23T01:55:15.829Z,29.67
2018-11-23T01:57:45.043Z,33.40
2018-11-23T02:00:15.719Z,30.27
2018-11-23T02:02:44.899Z,28.30
2018-11-23T02:05:13.772Z,29.57
2018-11-23T02:07:42.525Z,31.68
2018-11-23T02:10:12.859Z,27.50
2018-11-23T02:12:41.654Z,26.37
2018-11-23T02:15:14.157Z,28.62
2018-11-23T02:17:45.545Z,29.05
2018-11-23T02:20:16.128Z,26.20
2018-11-23T02:22:45.645Z,29.52
2018-11-23T02:25:15.455Z,26.82
2018-11-23T02:27:45.720Z,27.93
2018-11-23T02:30:20.323Z,26.20
2018-11-23T02:32:50.756Z,25.00
2018-11-23T02:35:20.086Z,25.85
2018-11-23T02:37:49.518Z,27.40
2018-11-23T02:40:19.776Z,24.60
2018-11-23T02:42:49.916Z,26.12
2018-11-23T02:45:20.543Z,25.32
2018-11-23T02:47:49.813Z,24.50
2018-11-23T02:50:19.185Z,24.92
2018-11-23T02:52:49.283Z,26.42
2018-11-23T02:55:19.433Z,25.70
2018-11-23T02:57:49.535Z,26.00
2018-11-23T03:00:20.528Z,25.37
2018-11-23T03:02:50.078Z,26.35
2018-11-23T03:05:21.180Z,24.60
2018-11-23T03:07:50.394Z,26.68
2018-11-23T03:10:20.889Z,24.57
2018-11-23T03:12:50.467Z,27.55
2018-11-23T03:15:20.131Z,27.17
2018-11-23T03:17:49.254Z,25.60
2018-11-23T03:20:19.346Z,26.75
2018-11-23T03:22:48.151Z,25.72
2018-11-23T03:25:16.992Z,24.95
2018-11-23T03:27:45.699Z,24.67
2018-11-23T03:30:21.633Z,27.17
2018-11-23T03:32:51.033Z,26.20
2018-11-23T03:35:20.527Z,26.82
2018-11-23T03:37:49.281Z,24.98
2018-11-23T03:40:18.116Z,24.23
2018-11-23T03:42:46.837Z,24.67
2018-11-23T03:45:16.728Z,24.47
2018-11-23T03:47:45.857Z,24.95
2018-11-23T03:50:15.595Z,26.30
2018-11-23T03:52:45.039Z,25.90
2018-11-23T03:55:13.801Z,26.93
2018-11-23T03:57:42.597Z,26.75
2018-11-23T04:00:17.375Z,26.68
2018-11-23T04:02:43.746Z,26.27
2018-11-23T04:05:12.712Z,25.95
2018-11-23T04:07:41.515Z,24.98
2018-11-23T04:10:12.433Z,24.57
2018-11-23T04:12:41.450Z,23.80
2018-11-23T04:15:10.998Z,22.62
2018-11-23T04:17:40.455Z,26.73
2018-11-23T04:20:11.274Z,25.88
2018-11-23T04:22:40.357Z,23.70
2018-11-23T04:25:09.353Z,24.18
2018-11-23T04:27:38.092Z,26.95
2018-11-23T04:30:10.562Z,26.50
2018-11-23T04:32:39.322Z,28.65
2018-11-23T04:35:10.583Z,28.35
2018-11-23T04:37:39.369Z,25.70
2018-11-23T04:40:09.290Z,28.85
2018-11-23T04:42:38.094Z,26.95
2018-11-23T04:45:07.477Z,26.77
2018-11-23T04:47:36.603Z,27.05
2018-11-23T04:50:06.021Z,26.30
2018-11-23T04:52:34.761Z,25.75
2018-11-23T04:55:03.552Z,23.83
2018-11-23T04:57:32.365Z,25.20
2018-11-23T05:00:01.160Z,25.43
2018-11-23T05:02:30.062Z,23.10
2018-11-23T05:04:58.868Z,23.70
2018-11-23T05:07:27.666Z,25.05
2018-11-23T05:09:56.422Z,24.98
2018-11-23T05:12:25.196Z,25.60
2018-11-23T05:14:53.979Z,24.23
2018-11-23T05:17:22.791Z,22.40
2018-11-23T05:19:51.555Z,23.35
2018-11-23T05:22:20.337Z,25.55
2018-11-23T05:24:49.142Z,24.20
2018-11-23T05:27:17.958Z,24.55
2018-11-23T05:29:46.698Z,24.23
2018-11-23T05:32:15.611Z,25.00
2018-11-23T05:34:44.467Z,27.25
2018-11-23T05:37:13.155Z,27.15
2018-11-23T05:39:42.046Z,23.32
2018-11-23T05:42:10.826Z,25.20
2018-11-23T05:44:39.599Z,28.30
2018-11-23T05:47:08.399Z,24.40
2018-11-23T05:49:37.237Z,24.30
2018-11-23T05:52:06.082Z,24.07
2018-11-23T05:54:35.215Z,24.77
2018-11-23T05:57:04.566Z,20.75
2018-11-23T05:59:33.407Z,24.07
2018-11-23T06:02:02.267Z,24.90
2018-11-23T06:04:31.096Z,24.40
2018-11-23T06:07:02.544Z,25.05
2018-11-23T06:09:31.366Z,24.77
2018-11-23T06:12:00.266Z,22.25
2018-11-23T06:14:29.135Z,25.25
2018-11-23T06:16:57.862Z,24.10
2018-11-23T06:19:26.609Z,24.18
2018-11-23T06:21:55.441Z,24.82
2018-11-23T06:24:27.579Z,23.80
2018-11-23T06:26:53.773Z,24.95
2018-11-23T06:29:22.584Z,27.00
2018-11-23T06:31:51.358Z,26.73
2018-11-23T06:34:20.591Z,27.20
2018-11-23T06:36:49.379Z,26.97
2018-11-23T06:39:18.254Z,27.05
2018-11-23T06:41:46.982Z,28.42
2018-11-23T06:44:15.878Z,28.07
2018-11-23T06:46:44.666Z,28.98
2018-11-23T06:49:13.468Z,27.82
2018-11-23T06:51:42.211Z,26.30
2018-11-23T06:54:14.547Z,28.07
2018-11-23T06:56:39.837Z,26.42
2018-11-23T06:59:08.759Z,25.97
2018-11-23T07:01:47.054Z,27.30
2018-11-23T07:04:15.778Z,26.40
2018-11-23T07:06:44.696Z,28.00
2018-11-23T07:09:13.490Z,27.62
2018-11-23T07:11:42.376Z,25.82
2018-11-23T07:14:11.437Z,26.80
2018-11-23T07:16:40.276Z,25.82
2018-11-23T07:19:09.166Z,26.10
2018-11-23T07:21:38.103Z,27.45
2018-11-23T07:24:07.107Z,27.82
2018-11-23T07:26:36.042Z,27.70
2018-11-23T07:29:05.562Z,28.07
2018-11-23T07:31:34.769Z,28.40
2018-11-23T07:34:03.572Z,28.62
2018-11-23T07:36:35.097Z,29.48
2018-11-23T07:39:05.531Z,30.40
2018-11-23T07:41:46.971Z,29.00
2018-11-23T07:44:16.661Z,28.80
2018-11-23T07:46:46.271Z,28.57
2018-11-23T07:49:15.574Z,29.75
2018-11-23T07:51:45.101Z,29.70
2018-11-23T07:54:14.106Z,28.25
2018-11-23T07:56:42.915Z,30.00
2018-11-23T07:59:12.253Z,29.35
2018-11-23T08:01:41.542Z,27.13
2018-11-23T08:04:10.700Z,31.37
2018-11-23T08:06:40.365Z,27.10
2018-11-23T08:09:10.012Z,30.68
2018-11-23T08:11:38.853Z,28.77
2018-11-23T08:14:07.659Z,28.60
2018-11-23T08:16:36.709Z,26.73
2018-11-23T08:19:05.530Z,26.97
2018-11-23T08:21:34.581Z,29.48
2018-11-23T08:24:05.142Z,32.48
2018-11-23T08:26:33.959Z,31.12
2018-11-23T08:29:02.833Z,29.60
2018-11-23T08:31:31.832Z,33.25
2018-11-23T08:34:00.801Z,31.97
2018-11-23T08:36:30.163Z,27.67
2018-11-23T08:39:04.602Z,26.42
2018-11-23T08:41:27.780Z,28.00
2018-11-23T08:43:56.652Z,27.07
2018-11-23T08:46:25.587Z,26.97
2018-11-23T08:48:55.007Z,33.73
2018-11-23T08:51:24.059Z,29.65
2018-11-23T08:53:53.669Z,26.37
2018-11-23T08:56:22.745Z,25.50
2018-11-23T08:58:51.798Z,25.25
2018-11-23T09:01:22.296Z,24.72
2018-11-23T09:03:52.360Z,26.33
2018-11-23T09:06:22.824Z,21.52
2018-11-23T09:08:52.930Z,24.25
2018-11-23T09:11:23.322Z,21.87
2018-11-23T09:13:52.255Z,21.55
2018-11-23T09:16:23.602Z,23.50
2018-11-23T09:18:52.457Z,21.17
2018-11-23T09:21:21.677Z,22.15
2018-11-23T09:23:51.809Z,21.17
2018-11-23T09:26:21.974Z,23.32
2018-11-23T09:28:51.912Z,22.80
2018-11-23T09:31:20.830Z,21.10
2018-11-23T09:33:49.738Z,22.82
2018-11-23T09:36:19.797Z,21.57
2018-11-23T09:38:49.528Z,21.80
2018-11-23T09:41:24.104Z,22.42
2018-11-23T09:43:55.072Z,19.70
2018-11-23T09:46:25.568Z,21.57
2018-11-23T09:49:07.317Z,20.88
2018-11-23T09:51:45.691Z,21.77
2018-11-23T09:54:14.739Z,21.57
2018-11-23T09:56:43.873Z,21.23
2018-11-23T09:59:14.313Z,19.40
2018-11-23T10:01:43.932Z,20.77
2018-11-23T10:04:13.000Z,20.08
2018-11-23T10:06:42.944Z,21.33
2018-11-23T10:09:12.184Z,20.55
2018-11-23T10:11:41.387Z,21.00
2018-11-23T10:14:24.402Z,19.57
2018-11-23T10:16:57.131Z,19.37
2018-11-23T10:19:34.031Z,21.75
2018-11-23T10:22:30.483Z,21.37
2018-11-23T10:24:59.854Z,20.70
2018-11-23T10:27:29.051Z,21.30
2018-11-23T10:29:58.231Z,20.13
2018-11-23T10:32:28.318Z,21.23
2018-11-23T10:34:58.114Z,20.63
2018-11-23T10:37:30.115Z,22.13
2018-11-23T10:39:59.812Z,21.40
2018-11-23T10:42:41.211Z,21.80
2018-11-23T10:45:14.747Z,26.60
2018-11-23T10:47:44.201Z,22.30
2018-11-23T10:50:16.179Z,20.17
2018-11-23T10:52:45.673Z,20.07
2018-11-23T10:55:20.964Z,20.60
2018-11-23T10:57:51.435Z,19.43
2018-11-23T11:00:28.778Z,21.07
2018-11-23T11:03:06.293Z,19.50
2018-11-23T11:05:44.612Z,17.47
2018-11-23T11:08:13.621Z,18.37
2018-11-23T11:10:42.749Z,16.47
2018-11-23T11:13:14.022Z,14.73
2018-11-23T11:15:48.165Z,15.97
2018-11-23T11:18:19.713Z,14.53
2018-11-23T11:21:14.143Z,13.67
2018-11-23T11:23:43.975Z,12.80
2018-11-23T11:26:13.350Z,13.87
2018-11-23T11:28:43.631Z,13.20
2018-11-23T11:31:20.027Z,13.50
2018-11-23T11:33:49.338Z,13.57
2018-11-23T11:36:19.764Z,13.27
2018-11-23T11:38:49.157Z,14.83
2018-11-23T11:41:18.213Z,14.33
2018-11-23T11:43:47.645Z,13.90
2018-11-23T11:46:17.455Z,14.67
2018-11-23T11:48:48.767Z,16.00
2018-11-23T11:51:18.026Z,15.10
2018-11-23T11:53:47.145Z,12.97
2018-11-23T11:56:16.164Z,14.90
2018-11-23T11:58:46.571Z,14.67
2018-11-23T12:01:15.856Z,15.17
2018-11-23T12:03:49.682Z,14.50
2018-11-23T12:06:19.951Z,14.20
2018-11-23T12:08:49.539Z,14.70
2018-11-23T12:11:19.087Z,14.90
2018-11-23T12:13:48.522Z,13.75
2018-11-23T12:16:18.153Z,13.80
2018-11-23T12:18:47.590Z,14.40
2018-11-23T12:21:18.026Z,16.25
2018-11-23T12:23:47.328Z,13.32
2018-11-23T12:26:16.225Z,13.75
2018-11-23T12:31:19.908Z,16.35
2018-11-23T12:33:49.138Z,14.73
2018-11-23T12:36:18.248Z,14.45
2018-11-23T12:38:47.594Z,14.30
2018-11-23T12:41:18.736Z,13.25
2018-11-23T12:43:50.855Z,14.07
2018-11-23T12:46:19.951Z,15.08
2018-11-23T12:48:49.711Z,15.45
2018-11-23T12:51:19.855Z,14.63
2018-11-23T12:53:55.035Z,14.80
2018-11-23T12:56:25.406Z,14.35
2018-11-23T12:58:54.670Z,14.35
2018-11-23T13:01:23.922Z,14.68
2018-11-23T13:03:53.642Z,16.15
2018-11-23T13:06:22.935Z,15.18
2018-11-23T13:08:52.276Z,15.30
2018-11-23T13:11:21.608Z,14.70
2018-11-23T13:13:50.607Z,14.10
2018-11-23T13:16:20.437Z,15.40
2018-11-23T13:18:49.425Z,13.80
2018-11-23T13:21:19.479Z,15.00
2018-11-23T13:23:48.709Z,15.10
2018-11-23T13:26:17.868Z,15.90
2018-11-23T13:28:46.957Z,14.87
2018-11-23T13:31:16.858Z,15.08
2018-11-23T13:33:52.827Z,14.07
2018-11-23T13:36:22.667Z,14.03
2018-11-23T13:38:51.738Z,13.40
2018-11-23T13:41:20.687Z,15.00
2018-11-23T13:43:50.262Z,15.20
2018-11-23T13:46:19.943Z,14.45
2018-11-23T13:48:49.248Z,14.55
2018-11-23T13:51:19.139Z,13.10
2018-11-23T13:53:48.135Z,14.30
2018-11-23T13:56:17.059Z,14.33
2018-11-23T13:58:45.983Z,13.13
2018-11-23T14:01:15.023Z,13.32
2018-11-23T14:03:44.038Z,12.00
2018-11-23T14:06:12.971Z,13.45
2018-11-23T14:08:42.343Z,13.90
2018-11-23T14:11:11.513Z,12.35
2018-11-23T14:13:57.073Z,12.95
2018-11-23T14:16:26.083Z,12.45
2018-11-23T14:18:55.055Z,12.15
2018-11-23T14:21:24.603Z,12.50
2018-11-23T14:23:58.690Z,11.70
2018-11-23T14:26:27.692Z,13.30
2018-11-23T14:28:56.933Z,11.90
2018-11-23T14:31:26.211Z,11.83
2018-11-23T14:33:55.352Z,11.45
2018-11-23T14:36:24.745Z,12.35
2018-11-23T14:38:56.746Z,13.80
2018-11-23T14:41:26.755Z,11.97
2018-11-23T14:44:06.667Z,13.30
2018-11-23T14:46:31.925Z,12.63
2018-11-23T14:49:01.450Z,11.78
2018-11-23T14:51:31.961Z,12.58
2018-11-23T14:54:04.052Z,13.78
2018-11-23T14:56:33.362Z,13.58
2018-11-23T14:59:02.681Z,13.00
2018-11-23T15:01:31.772Z,12.28
2018-11-23T15:04:00.871Z,13.30
2018-11-23T15:06:29.881Z,11.78
2018-11-23T15:08:58.702Z,14.10
2018-11-23T15:11:27.631Z,13.28
2018-11-23T15:13:56.631Z,13.00
2018-11-23T15:16:26.066Z,12.00
2018-11-23T15:18:55.008Z,12.53
2018-11-23T15:21:24.212Z,13.83
2018-11-23T15:24:44.461Z,13.93
2018-11-23T15:27:17.640Z,12.37
2018-11-23T15:29:46.652Z,11.53
2018-11-23T15:32:15.533Z,13.03
2018-11-23T15:34:44.374Z,13.83
2018-11-23T15:37:13.615Z,13.20
2018-11-23T15:39:45.768Z,14.00
2018-11-23T15:42:14.827Z,14.38
2018-11-23T15:44:43.723Z,14.73
2018-11-23T15:47:12.695Z,13.68
2018-11-23T15:49:41.715Z,15.40
2018-11-23T15:52:10.811Z,12.13
2018-11-23T15:54:40.310Z,12.78
2018-11-23T15:57:09.237Z,13.98
2018-11-23T15:59:38.308Z,14.35
2018-11-23T16:02:07.450Z,16.20
2018-11-23T16:04:39.540Z,14.63
2018-11-23T16:07:07.406Z,15.15
2018-11-23T16:09:36.460Z,15.55
2018-11-23T16:12:10.845Z,15.63
2018-11-23T16:14:41.222Z,16.15
2018-11-23T16:17:11.026Z,17.98
2018-11-23T16:19:39.971Z,16.77
2018-11-23T16:22:09.834Z,16.90
2018-11-23T16:24:39.408Z,19.02
2018-11-23T16:27:08.699Z,16.20
2018-11-23T16:29:38.011Z,18.73
2018-11-23T16:32:06.999Z,16.95
2018-11-23T16:34:35.961Z,16.62
2018-11-23T16:37:05.038Z,16.60
2018-11-23T16:39:33.851Z,20.00
2018-11-23T16:42:03.188Z,17.15
2018-11-23T16:44:32.162Z,16.97
2018-11-23T16:47:01.096Z,17.92
2018-11-23T16:49:30.110Z,18.27
2018-11-23T16:51:59.161Z,17.27
2018-11-23T16:54:28.290Z,17.80
2018-11-23T16:56:57.346Z,21.23
2018-11-23T16:59:27.360Z,17.60
2018-11-23T17:01:56.298Z,19.40
2018-11-23T17:04:52.778Z,20.90
2018-11-23T17:07:21.997Z,19.42
2018-11-23T17:09:50.954Z,18.48
2018-11-23T17:12:19.805Z,18.62
2018-11-23T17:14:48.712Z,20.45
2018-11-23T17:17:17.576Z,20.50
2018-11-23T17:19:46.399Z,19.50
2018-11-23T17:22:15.213Z,19.62
2018-11-23T17:24:44.088Z,19.77
2018-11-23T17:27:12.955Z,20.57
2018-11-23T17:29:41.743Z,21.42
2018-11-23T17:32:10.756Z,22.22
2018-11-23T17:34:39.908Z,22.35
2018-11-23T17:37:08.816Z,25.23
2018-11-23T17:39:41.870Z,21.62
2018-11-23T17:42:11.118Z,22.65
2018-11-23T17:44:40.061Z,23.80
2018-11-23T17:47:08.930Z,23.70
2018-11-23T17:49:37.780Z,26.00
2018-11-23T17:52:06.629Z,27.00
2018-11-23T17:54:35.880Z,26.33
2018-11-23T17:57:04.790Z,24.98
2018-11-23T17:59:43.593Z,24.32
2018-11-23T18:02:12.599Z,28.20
2018-11-23T18:04:41.367Z,29.77
2018-11-23T18:07:10.357Z,30.15
2018-11-23T18:09:39.378Z,28.00
2018-11-23T18:12:08.430Z,27.00
2018-11-23T18:14:37.237Z,30.80
2018-11-23T18:17:06.409Z,28.50
2018-11-23T18:19:35.440Z,28.87
2018-11-23T18:22:04.469Z,28.50
2018-11-23T18:24:34.537Z,29.40
2018-11-23T18:27:03.934Z,25.75
2018-11-23T18:29:32.787Z,28.57
2018-11-23T18:32:01.595Z,31.15
2018-11-23T18:34:30.844Z,30.65
2018-11-23T18:36:59.887Z,27.25
2018-11-23T18:39:29.297Z,28.42
2018-11-23T18:41:58.310Z,31.07
2018-11-23T18:44:27.238Z,29.40
2018-11-23T18:46:56.073Z,30.68
2018-11-23T18:49:24.912Z,29.00
2018-11-23T18:51:53.772Z,27.90
2018-11-23T18:54:22.631Z,30.23
2018-11-23T18:56:52.494Z,27.25
2018-11-23T18:59:20.583Z,29.40
2018-11-23T19:01:50.883Z,28.98
2018-11-23T19:04:19.767Z,27.82
2018-11-23T19:06:48.624Z,28.15
2018-11-23T19:09:17.490Z,28.87
2018-11-23T19:11:46.361Z,32.00
2018-11-23T19:14:15.186Z,31.80
2018-11-23T19:16:44.058Z,31.40
2018-11-23T19:19:13.410Z,30.00
2018-11-23T19:21:42.322Z,32.95
2018-11-23T19:24:11.068Z,33.75
2018-11-23T19:26:39.888Z,32.23
2018-11-23T19:29:08.679Z,32.83
2018-11-23T19:31:37.480Z,33.02
2018-11-23T19:34:06.347Z,34.05
2018-11-23T19:36:35.208Z,34.05
2018-11-23T19:39:05.071Z,35.75
2018-11-23T19:41:33.852Z,37.13
2018-11-23T19:44:02.680Z,33.90
2018-11-23T19:46:31.621Z,36.55
2018-11-23T19:49:00.620Z,34.33
2018-11-23T19:51:29.786Z,36.80
2018-11-23T19:53:59.869Z,38.20
2018-11-23T19:56:29.492Z,39.58
2018-11-23T19:58:57.588Z,36.90
2018-11-23T20:01:29.012Z,35.20
2018-11-23T20:03:57.866Z,33.38
2018-11-23T20:06:26.798Z,35.33
2018-11-23T20:08:55.920Z,32.55
2018-11-23T20:11:24.725Z,32.63
2018-11-23T20:13:53.586Z,32.93
2018-11-23T20:16:22.381Z,32.70
2018-11-23T20:18:51.271Z,33.28
2018-11-23T20:21:20.426Z,34.65
2018-11-23T20:23:49.299Z,33.38
2018-11-23T20:26:18.215Z,33.42
2018-11-23T20:28:47.138Z,32.80
2018-11-23T20:31:16.040Z,31.17
2018-11-23T20:33:44.848Z,29.65
2018-11-23T20:36:13.663Z,29.92
2018-11-23T20:38:42.837Z,33.20
2018-11-23T20:41:11.627Z,31.42
2018-11-23T20:43:41.430Z,33.98
2018-11-23T20:46:10.242Z,30.15
2018-11-23T20:48:39.053Z,30.50
2018-11-23T20:51:07.930Z,32.03
2018-11-23T20:53:37.034Z,27.58
2018-11-23T20:56:05.909Z,29.82
2018-11-23T20:58:34.694Z,29.52
2018-11-23T21:01:03.537Z,28.73
2018-11-23T21:03:33.462Z,28.27
2018-11-23T21:06:02.750Z,29.92
2018-11-23T21:08:32.283Z,26.65
2018-11-23T21:11:01.698Z,26.82
2018-11-23T21:13:31.087Z,28.47
2018-11-23T21:16:01.386Z,27.20
2018-11-23T21:18:30.795Z,28.05
2018-11-23T21:21:00.360Z,27.20
2018-11-23T21:23:30.367Z,28.57
2018-11-23T21:25:59.714Z,31.27
2018-11-23T21:28:29.527Z,31.60
2018-11-23T21:31:00.942Z,29.52
2018-11-23T21:33:30.151Z,27.90
2018-11-23T21:36:01.736Z,29.75
2018-11-23T21:38:31.984Z,27.48
2018-11-23T21:41:01.588Z,28.20
2018-11-23T21:43:31.017Z,29.95
2018-11-23T21:46:00.851Z,27.37
2018-11-23T21:48:29.783Z,29.10
2018-11-23T21:50:58.572Z,28.57
2018-11-23T21:53:27.518Z,28.42
2018-11-23T21:55:56.374Z,28.15
2018-11-23T21:58:25.272Z,30.77
2018-11-23T22:00:54.128Z,28.35
2018-11-23T22:03:22.930Z,27.30
2018-11-23T22:05:51.761Z,30.57
2018-11-23T22:08:20.531Z,30.32
2018-11-23T22:10:49.402Z,28.47
2018-11-23T22:13:18.270Z,31.35
2018-11-23T22:15:47.135Z,29.77
2018-11-23T22:18:15.976Z,27.40
2018-11-23T22:20:44.838Z,30.85
2018-11-23T22:23:13.649Z,30.37
2018-11-23T22:25:42.479Z,29.72
2018-11-23T22:28:12.229Z,31.00
2018-11-23T22:30:41.015Z,31.30
2018-11-23T22:33:09.899Z,29.52
2018-11-23T22:35:38.789Z,30.77
2018-11-23T22:38:07.711Z,28.40
2018-11-23T22:40:36.825Z,30.30
2018-11-23T22:43:06.020Z,29.60
2018-11-23T22:45:34.930Z,28.50
2018-11-23T22:48:08.442Z,28.60
2018-11-23T22:50:37.269Z,29.57
2018-11-23T22:53:06.295Z,30.30
2018-11-23T22:55:35.235Z,31.23
2018-11-23T22:58:04.033Z,30.23
2018-11-23T23:00:38.406Z,29.30
2018-11-23T23:03:07.271Z,30.48
2018-11-23T23:05:36.108Z,31.45
2018-11-23T23:08:05.591Z,29.60
2018-11-23T23:10:34.483Z,30.08
2018-11-23T23:13:03.315Z,29.82
2018-11-23T23:15:32.133Z,31.05
2018-11-23T23:18:01.003Z,29.52
2018-11-23T23:20:29.822Z,31.05
2018-11-23T23:22:58.652Z,29.90
2018-11-23T23:25:27.446Z,30.62
2018-11-23T23:27:56.418Z,31.05
2018-11-23T23:30:25.263Z,31.70
2018-11-23T23:32:54.082Z,30.45
2018-11-23T23:35:22.851Z,29.48
2018-11-23T23:37:51.730Z,28.85
2018-11-23T23:40:20.609Z,28.27
2018-11-23T23:42:49.513Z,29.45
2018-11-23T23:45:19.084Z,30.00
2018-11-23T23:47:47.890Z,31.00
2018-11-23T23:50:18.844Z,28.95
2018-11-23T23:52:47.697Z,30.37
2018-11-23T23:55:16.519Z,31.52
2018-11-23T23:57:46.149Z,30.35
